»·PEaware :: SWA5022 KSAN-KSJC

SWA5022 :: KSAN-KSJC

FLIGHT INFORMATION

Flight Status: Arrived
Operator:
Southwest Airlines
More flights by this operator :: More flights under this callsign
Pilot: Martin A. (6413)
Aircraft: BOEING 737-800
(B738)
More flights by this aircraft type
Origin: KSAN San Diego Intl-Lindbergh
United States
Destination: KSJC Mineta San Jose Intl
United States
More flights between these airports :: More routes between these airports
Route: +PADRZ1 IKAYE TESEA SCTRR TROXX SILCN4
File this flight plan on PilotEdge
Remarks: PBN / A1B1C1D1L1O1S2 DOF / 171129 REG / N888SB EET / KZOA0033 OPR / SWA PER / D RMK / TCAS SIMBRIEF
Altitude:
(Current/Filed)
36,000ft
Speed:
(Current/Filed)
447kts
Departed: 28-Nov-17 06:32 PM
Arrived: 28-Nov-17 07:34 PM
Distance/Time
Traveled:
363nm/1:02
Distance/Time
To Go:
Arrived

Flight Plot

Page will automatically refresh every two minutes.

Flight plan parsing failed; only flown route is shown


Map Options




Map Legend


Flown Route
Filed Route
Departure Airport
Arrival Airport
Navaid (VOR, NDB)
Fix

Horizontal Profiles

Position Reports

Time Latitude Longitude Heading Altitude Ground
Speed
28-Nov-17 18:08 32.733445 -117.195963 199 19ft 0kts
28-Nov-17 18:09 32.733445 -117.195963 199 19ft 0kts
28-Nov-17 18:10 32.733445 -117.195963 199 19ft 0kts
28-Nov-17 18:11 32.733445 -117.195963 199 19ft 0kts
28-Nov-17 18:12 32.733445 -117.195963 199 19ft 0kts
28-Nov-17 18:13 32.733445 -117.195963 199 19ft 0kts
28-Nov-17 18:14 32.733445 -117.195963 199 19ft 0kts
28-Nov-17 18:15 32.733445 -117.195963 199 19ft 0kts
28-Nov-17 18:16 32.733445 -117.195963 199 19ft 0kts
28-Nov-17 18:17 32.733445 -117.195963 199 19ft 0kts
28-Nov-17 18:18 32.733445 -117.195963 199 19ft 0kts
28-Nov-17 18:19 32.733445 -117.195963 199 19ft 0kts
28-Nov-17 18:20 32.733445 -117.195963 199 19ft 0kts
28-Nov-17 18:21 32.733445 -117.195963 199 19ft 0kts
28-Nov-17 18:22 32.733445 -117.195963 199 19ft 0kts
28-Nov-17 18:23 32.733445 -117.195963 199 19ft 0kts
28-Nov-17 18:24 32.733445 -117.195963 199 19ft 0kts
28-Nov-17 18:25 32.733445 -117.195963 199 19ft 0kts
28-Nov-17 18:26 32.733445 -117.195963 199 19ft 0kts
28-Nov-17 18:27 32.733904 -117.195924 152 19ft 2kts
28-Nov-17 18:28 32.734131 -117.196279 106 18ft 0kts
28-Nov-17 18:29 32.734131 -117.196279 106 18ft 0kts
28-Nov-17 18:30 32.733998 -117.195753 106 19ft 7kts
28-Nov-17 18:31 32.732993 -117.191596 106 20ft 16kts
28-Nov-17 18:32 32.731641 -117.185974 106 17ft 19kts
28-Nov-17 18:33 32.730238 -117.180247 107 17ft 14kts
28-Nov-17 18:34 32.729853 -117.178595 105 20ft 6kts
28-Nov-17 18:35 32.729492 -117.176875 82 22ft 3kts
28-Nov-17 18:36 32.730245 -117.175362 264 24ft 4kts
28-Nov-17 18:37 32.736805 -117.202405 289 934ft 178kts
28-Nov-17 18:38 32.763411 -117.258026 305 3501ft 233kts
28-Nov-17 18:39 32.805599 -117.327811 305 6840ft 279kts
28-Nov-17 18:40 32.853653 -117.402309 304 10555ft 298kts
28-Nov-17 18:41 32.907580 -117.486029 304 13726ft 331kts
28-Nov-17 18:42 32.964118 -117.574066 304 14961ft 337kts
28-Nov-17 18:43 33.021108 -117.663120 304 14966ft 338kts
28-Nov-17 18:44 33.085997 -117.752322 316 17329ft 362kts
28-Nov-17 18:45 33.161375 -117.828854 316 20487ft 372kts
28-Nov-17 18:46 33.237793 -117.914689 311 23148ft 387kts
28-Nov-17 18:47 33.281429 -117.967792 310 24389ft 395kts
28-Nov-17 18:48 33.359162 -118.062263 310 25802ft 404kts
28-Nov-17 18:49 33.438434 -118.158506 310 27343ft 405kts
28-Nov-17 18:50 33.517055 -118.253889 310 28802ft 403kts
28-Nov-17 18:51 33.595331 -118.348768 310 30061ft 400kts
28-Nov-17 18:52 33.673225 -118.443101 310 31135ft 398kts
28-Nov-17 18:53 33.750936 -118.537127 310 32078ft 397kts
28-Nov-17 18:54 33.828561 -118.630963 310 32900ft 395kts
28-Nov-17 18:55 33.904899 -118.723145 309 33645ft 394kts
28-Nov-17 18:56 33.980477 -118.814329 309 33827ft 378kts
28-Nov-17 18:57 34.055495 -118.904820 309 33938ft 385kts
28-Nov-17 18:58 34.131292 -118.996125 309 33958ft 394kts
28-Nov-17 18:59 34.209822 -119.090934 309 33954ft 404kts
28-Nov-17 19:00 34.288599 -119.186776 309 33336ft 393kts
28-Nov-17 19:01 34.364237 -119.278828 309 32036ft 380kts
28-Nov-17 19:02 34.440260 -119.371277 310 32035ft 396kts
28-Nov-17 19:03 34.519534 -119.467528 310 32036ft 413kts
28-Nov-17 19:04 34.602543 -119.568236 310 32038ft 431kts
28-Nov-17 19:05 34.688911 -119.672907 310 32040ft 449kts
28-Nov-17 19:06 34.777214 -119.779821 311 32060ft 453kts
28-Nov-17 19:07 34.864627 -119.885539 311 32074ft 446kts
28-Nov-17 19:08 34.952647 -119.991877 310 32076ft 449kts
28-Nov-17 19:09 35.042102 -120.099851 309 32070ft 457kts
28-Nov-17 19:10 35.131868 -120.208091 309 32049ft 457kts
28-Nov-17 19:11 35.229208 -120.308963 318 32051ft 464kts
28-Nov-17 19:12 35.332210 -120.403453 318 32059ft 463kts
28-Nov-17 19:13 35.435130 -120.497937 318 32082ft 464kts
28-Nov-17 19:14 35.538521 -120.591326 321 32113ft 466kts
28-Nov-17 19:15 35.647380 -120.676952 321 32122ft 466kts
28-Nov-17 19:16 35.756195 -120.762759 321 32126ft 466kts
28-Nov-17 19:17 35.862995 -120.846928 321 32120ft 466kts
28-Nov-17 19:18 35.971941 -120.932737 322 32104ft 455kts
28-Nov-17 19:19 36.069598 -121.019727 317 29756ft 436kts
28-Nov-17 19:20 36.158349 -121.104505 317 27573ft 417kts
28-Nov-17 19:21 36.247723 -121.189777 317 25135ft 397kts
28-Nov-17 19:22 36.333142 -121.271223 318 22895ft 382kts
28-Nov-17 19:23 36.415101 -121.350009 318 20678ft 368kts
28-Nov-17 19:24 36.494431 -121.425429 327 19148ft 354kts
28-Nov-17 19:25 36.585397 -121.467383 338 17404ft 348kts
28-Nov-17 19:26 36.675427 -121.505381 338 15400ft 337kts
28-Nov-17 19:27 36.762334 -121.542142 338 13578ft 323kts
28-Nov-17 19:28 36.846139 -121.577799 339 11733ft 313kts
28-Nov-17 19:29 36.924306 -121.611038 339 9607ft 281kts
28-Nov-17 19:30 36.996670 -121.641774 340 7638ft 271kts
28-Nov-17 19:31 37.066850 -121.671589 340 5850ft 258kts
28-Nov-17 19:32 37.127841 -121.697567 341 4517ft 242kts
28-Nov-17 19:33 37.187214 -121.733243 313 3994ft 239kts
28-Nov-17 19:34 37.232255 -121.787250 318 3272ft 213kts
28-Nov-17 19:35 37.273439 -121.832244 318 2236ft 180kts
28-Nov-17 19:36 37.308067 -121.870079 318 1330ft 156kts
28-Nov-17 19:37 37.339845 -121.904859 318 524ft 150kts
28-Nov-17 19:38 37.368676 -121.936604 312 44ft 88kts
28-Nov-17 19:39 37.373367 -121.940180 46 44ft 0kts
28-Nov-17 19:40 37.374175 -121.937692 135 40ft 15kts
28-Nov-17 19:41 37.372248 -121.934607 139 38ft 11kts
28-Nov-17 19:42 37.370429 -121.932131 61 39ft 6kts

Navigation Log

Ident Type
Flight plan parsing failed, navigation log unavailable